Wind From: 11-12-2017 10:04 Until: 12-12-2017 06:00 warning for: Wind Level: Orange info button

Power and phone distribution networks may be disrupted for relatively long periods., Roofs and chimneys can be damaged. , Tree branches may break. , Vehicles can be deported. , Traffic may be disrupted, particularly on secondary roads in forest areas. Limit your trips. , Limit your speed in highway driving, especially if you drive a vehicle or hitch sensitive to wind. , Do not go for walks in forests or along the coast., In town, be vigilant against possible falling objects., Do not work on roofs and do not touch any electrical line fallen on the ground., Store or secure sensitive objects to wind or likely to be damaged., Always install power generators outside buildings. 


Meteo18 Weather Cam more information Meteo18 Weather Cam


Thunder radar more information blitzortung!


Rain radar more information rain snow radar


Visit our other weather sites:

Template documentation
and downloads

And another site



Weather Underground History page Text

Daily Summary for May 28, 2017 Units:  Both    English   Metric
« Previous Day
Next Day »
Daily Weekly Monthly Yearly Custom
  High: Low: Average:
Temperature: 87.4 °F /  30.8 °C 63.3 °F /  17.4 °C 75.7 °F /  24.3 °C
Dew Point: 68 °F /  20.0 °C 59.2 °F /  15.1 °C 63.3 °F /  17.4 °C
Humidity: 88 % 40 % 68 %
Wind Speed: 8 mph /  12.9 km/h - 1.2 mph /  2 km/h
Wind Gust: 10 mph /  16.1 km/h - -
Wind:- - South
Pressure: 30.1 in /  1018.2 hPa 30 in /  1015.1 hPa -
Precipitation: 0 in /  0.0 mm    
Historical Graphs
 
 
Tabular Data for May 28, 2017
Time Temperature Dew Point Pressure Wind Wind Speed Wind Gust Humidity Rainfall Rate (Hourly)
00:02 68.9 °F /  20.5 °C 64.2 °F /  17.9 °C 30.1 in /  1017.8 hPa Calm   2 mph /  3.2 km/h 85 % 0 in /  0.0 mm
00:12 69.3 °F /  20.7 °C 63.5 °F /  17.5 °C 30.1 in /  1017.8 hPa WNW 1 mph /  1.6 km/h 2 mph /  3.2 km/h 82 % 0 in /  0.0 mm
00:17 69.1 °F /  20.6 °C 63.7 °F /  17.6 °C 30.1 in /  1017.8 hPa WNW 2 mph /  3.2 km/h 2 mph /  3.2 km/h 83 % 0 in /  0.0 mm
00:22 68.7 °F /  20.4 °C 63.7 °F /  17.6 °C 30.1 in /  1017.8 hPa WNW 1 mph /  1.6 km/h 2 mph /  3.2 km/h 84 % 0 in /  0.0 mm
00:32 68.7 °F /  20.4 °C 63.3 °F /  17.4 °C 30.1 in /  1017.8 hPa WNW 1 mph /  1.6 km/h 2 mph /  3.2 km/h 83 % 0 in /  0.0 mm
00:37 68.9 °F /  20.5 °C 63.1 °F /  17.3 °C 30.1 in /  1017.5 hPa Calm   2 mph /  3.2 km/h 82 % 0 in /  0.0 mm
00:42 68.7 °F /  20.4 °C 63 °F /  17.2 °C 30.1 in /  1017.8 hPa Calm   2 mph /  3.2 km/h 82 % 0 in /  0.0 mm
00:47 69.3 °F /  20.7 °C 63.1 °F /  17.3 °C 30.1 in /  1017.8 hPa NNW 2 mph /  3.2 km/h 2 mph /  3.2 km/h 81 % 0 in /  0.0 mm
00:52 69.3 °F /  20.7 °C 62.8 °F /  17.1 °C 30.1 in /  1017.8 hPa NNW 1 mph /  1.6 km/h 2 mph /  3.2 km/h 80 % 0 in /  0.0 mm
00:57 69.1 °F /  20.6 °C 62.6 °F /  17.0 °C 30.1 in /  1017.8 hPa NNW 1 mph /  1.6 km/h 3 mph /  4.8 km/h 80 % 0 in /  0.0 mm
01:02 68.2 °F /  20.1 °C 62.8 °F /  17.1 °C 30.1 in /  1017.8 hPa WNW 1 mph /  1.6 km/h 3 mph /  4.8 km/h 83 % 0 in /  0.0 mm
01:12 67.6 °F /  19.8 °C 63 °F /  17.2 °C 30.1 in /  1017.8 hPa WNW 1 mph /  1.6 km/h 2 mph /  3.2 km/h 85 % 0 in /  0.0 mm
01:17 67.6 °F /  19.8 °C 62.6 °F /  17.0 °C 30.1 in /  1017.8 hPa WNW 1 mph /  1.6 km/h 2 mph /  3.2 km/h 84 % 0 in /  0.0 mm
01:22 67.6 °F /  19.8 °C 62.2 °F /  16.8 °C 30.1 in /  1017.8 hPa Calm   2 mph /  3.2 km/h 83 % 0 in /  0.0 mm
01:32 67.5 °F /  19.7 °C 62.1 °F /  16.7 °C 30.1 in /  1017.8 hPa Calm   2 mph /  3.2 km/h 83 % 0 in /  0.0 mm
01:37 67.3 °F /  19.6 °C 61.9 °F /  16.6 °C 30.1 in /  1017.8 hPa Calm   1 mph /  1.6 km/h 83 % 0 in /  0.0 mm
01:42 67.6 °F /  19.8 °C 62.2 °F /  16.8 °C 30.1 in /  1017.8 hPa North 1 mph /  1.6 km/h 1 mph /  1.6 km/h 83 % 0 in /  0.0 mm
01:52 68.4 °F /  20.2 °C 61.9 °F /  16.6 °C 30.1 in /  1017.8 hPa Calm   2 mph /  3.2 km/h 80 % 0 in /  0.0 mm
01:57 68.5 °F /  20.3 °C 61.7 °F /  16.5 °C 30.1 in /  1017.8 hPa Calm   2 mph /  3.2 km/h 79 % 0 in /  0.0 mm
02:07 68.7 °F /  20.4 °C 61.5 °F /  16.4 °C 30.1 in /  1017.8 hPa North 1 mph /  1.6 km/h 2 mph /  3.2 km/h 78 % 0 in /  0.0 mm
02:12 68.7 °F /  20.4 °C 61.5 °F /  16.4 °C 30.1 in /  1017.8 hPa Calm   2 mph /  3.2 km/h 78 % 0 in /  0.0 mm
02:17 68.4 °F /  20.2 °C 61.5 °F /  16.4 °C 30.1 in /  1017.8 hPa Calm   1 mph /  1.6 km/h 79 % 0 in /  0.0 mm
02:22 67.8 °F /  19.9 °C 61.3 °F /  16.3 °C 30.1 in /  1017.8 hPa Calm   1 mph /  1.6 km/h 80 % 0 in /  0.0 mm
02:32 68.4 °F /  20.2 °C 61.2 °F /  16.2 °C 30.1 in /  1017.8 hPa WNW 2 mph /  3.2 km/h 2 mph /  3.2 km/h 78 % 0 in /  0.0 mm
02:37 67.1 °F /  19.5 °C 61.3 °F /  16.3 °C 30.1 in /  1017.8 hPa WNW 2 mph /  3.2 km/h 2 mph /  3.2 km/h 82 % 0 in /  0.0 mm
02:42 66.7 °F /  19.3 °C 61.3 °F /  16.3 °C 30.1 in /  1017.8 hPa WNW 1 mph /  1.6 km/h 3 mph /  4.8 km/h 83 % 0 in /  0.0 mm
02:52 67.5 °F /  19.7 °C 61.3 °F /  16.3 °C 30.1 in /  1017.8 hPa Calm   3 mph /  4.8 km/h 81 % 0 in /  0.0 mm
02:57 67.1 °F /  19.5 °C 61.2 °F /  16.2 °C 30.1 in /  1017.8 hPa Calm   1 mph /  1.6 km/h 81 % 0 in /  0.0 mm
03:02 67.1 °F /  19.5 °C 61.2 °F /  16.2 °C 30.1 in /  1017.8 hPa Calm   1 mph /  1.6 km/h 81 % 0 in /  0.0 mm
03:12 66.6 °F /  19.2 °C 61 °F /  16.1 °C 30.1 in /  1017.5 hPa Calm     82 % 0 in /  0.0 mm
03:17 66.7 °F /  19.3 °C 61 °F /  16.1 °C 30.1 in /  1017.5 hPa Calm     82 % 0 in /  0.0 mm
03:22 66.9 °F /  19.4 °C 61 °F /  16.1 °C 30.1 in /  1017.5 hPa Calm     81 % 0 in /  0.0 mm
03:32 65.7 °F /  18.7 °C 60.4 °F /  15.8 °C 30.1 in /  1017.5 hPa WNW 2 mph /  3.2 km/h   83 % 0 in /  0.0 mm
03:37 65.1 °F /  18.4 °C 60.4 °F /  15.8 °C 30.1 in /  1017.5 hPa WNW 1 mph /  1.6 km/h 3 mph /  4.8 km/h 85 % 0 in /  0.0 mm
03:42 65.3 °F /  18.5 °C 61 °F /  16.1 °C 30.1 in /  1017.5 hPa Calm   3 mph /  4.8 km/h 86 % 0 in /  0.0 mm
03:47 65.7 °F /  18.7 °C 60.6 °F /  15.9 °C 30.1 in /  1017.5 hPa WNW 1 mph /  1.6 km/h 3 mph /  4.8 km/h 84 % 0 in /  0.0 mm
03:52 65.1 °F /  18.4 °C 60.4 °F /  15.8 °C 30.1 in /  1017.5 hPa WNW 1 mph /  1.6 km/h 3 mph /  4.8 km/h 85 % 0 in /  0.0 mm
03:57 64.8 °F /  18.2 °C 60.4 °F /  15.8 °C 30.1 in /  1017.5 hPa WNW 1 mph /  1.6 km/h 2 mph /  3.2 km/h 86 % 0 in /  0.0 mm
04:02 64.8 °F /  18.2 °C 60.4 °F /  15.8 °C 30.1 in /  1017.5 hPa WNW 2 mph /  3.2 km/h 2 mph /  3.2 km/h 86 % 0 in /  0.0 mm
04:12 64.8 °F /  18.2 °C 60.4 °F /  15.8 °C 30.1 in /  1017.5 hPa WNW 1 mph /  1.6 km/h 2 mph /  3.2 km/h 86 % 0 in /  0.0 mm
04:17 64.9 °F /  18.3 °C 60.6 °F /  15.9 °C 30.1 in /  1017.5 hPa Calm   2 mph /  3.2 km/h 86 % 0 in /  0.0 mm
04:22 64.8 °F /  18.2 °C 60.4 °F /  15.8 °C 30.1 in /  1017.5 hPa NNW 1 mph /  1.6 km/h 2 mph /  3.2 km/h 86 % 0 in /  0.0 mm
04:32 65.3 °F /  18.5 °C 60.3 °F /  15.7 °C 30.1 in /  1017.5 hPa Calm   1 mph /  1.6 km/h 84 % 0 in /  0.0 mm
04:42 64.8 °F /  18.2 °C 59.9 °F /  15.5 °C 30.1 in /  1017.5 hPa Calm   1 mph /  1.6 km/h 84 % 0 in /  0.0 mm
04:47 64.2 °F /  17.9 °C 60.3 °F /  15.7 °C 30.1 in /  1017.5 hPa Calm   1 mph /  1.6 km/h 87 % 0 in /  0.0 mm
04:52 64.4 °F /  18.0 °C 60.4 °F /  15.8 °C 30.1 in /  1017.5 hPa WNW 1 mph /  1.6 km/h 1 mph /  1.6 km/h 87 % 0 in /  0.0 mm
04:57 64.6 °F /  18.1 °C 60.3 °F /  15.7 °C 30.1 in /  1017.5 hPa Calm   1 mph /  1.6 km/h 86 % 0 in /  0.0 mm
05:02 64.8 °F /  18.2 °C 60.1 °F /  15.6 °C 30.1 in /  1017.5 hPa NW 1 mph /  1.6 km/h 1 mph /  1.6 km/h 85 % 0 in /  0.0 mm
05:12 64.8 °F /  18.2 °C 60.4 °F /  15.8 °C 30.1 in /  1017.5 hPa Calm   1 mph /  1.6 km/h 86 % 0 in /  0.0 mm
05:17 64.6 °F /  18.1 °C 59.9 °F /  15.5 °C 30.1 in /  1017.5 hPa Calm   1 mph /  1.6 km/h 85 % 0 in /  0.0 mm
05:22 63.9 °F /  17.7 °C 59.5 °F /  15.3 °C 30.1 in /  1017.5 hPa WNW 1 mph /  1.6 km/h 1 mph /  1.6 km/h 86 % 0 in /  0.0 mm
05:32 63.7 °F /  17.6 °C 60.1 °F /  15.6 °C 30.1 in /  1017.8 hPa Calm   1 mph /  1.6 km/h 88 % 0 in /  0.0 mm
05:42 64.2 °F /  17.9 °C 59.9 °F /  15.5 °C 30.1 in /  1017.8 hPa Calm   1 mph /  1.6 km/h 86 % 0 in /  0.0 mm
05:47 64.8 °F /  18.2 °C 60.1 °F /  15.6 °C 30.1 in /  1017.8 hPa Calm   1 mph /  1.6 km/h 85 % 0 in /  0.0 mm
05:52 64.6 °F /  18.1 °C 59.9 °F /  15.5 °C 30.1 in /  1017.8 hPa Calm   1 mph /  1.6 km/h 85 % 0 in /  0.0 mm
05:57 63.7 °F /  17.6 °C 59.4 °F /  15.2 °C 30.1 in /  1017.8 hPa Calm   1 mph /  1.6 km/h 86 % 0 in /  0.0 mm
06:02 63.3 °F /  17.4 °C 59.7 °F /  15.4 °C 30.1 in /  1017.8 hPa Calm     88 % 0 in /  0.0 mm
06:12 63.7 °F /  17.6 °C 60.1 °F /  15.6 °C 30.1 in /  1017.8 hPa Calm     88 % 0 in /  0.0 mm
06:17 64.2 °F /  17.9 °C 59.9 °F /  15.5 °C 30.1 in /  1017.8 hPa Calm     86 % 0 in /  0.0 mm
06:22 64.2 °F /  17.9 °C 59.9 °F /  15.5 °C 30.1 in /  1017.8 hPa Calm     86 % 0 in /  0.0 mm
06:32 64 °F /  17.8 °C 59.7 °F /  15.4 °C 30.1 in /  1017.8 hPa Calm     86 % 0 in /  0.0 mm
06:37 64 °F /  17.8 °C 59.4 °F /  15.2 °C 30.1 in /  1017.8 hPa Calm     85 % 0 in /  0.0 mm
06:42 63.9 °F /  17.7 °C 59.2 °F /  15.1 °C 30.1 in /  1017.8 hPa Calm     85 % 0 in /  0.0 mm
06:47 63.7 °F /  17.6 °C 59.7 °F /  15.4 °C 30.1 in /  1017.8 hPa Calm     87 % 0 in /  0.0 mm
06:52 64 °F /  17.8 °C 60.1 °F /  15.6 °C 30.1 in /  1017.8 hPa Calm     87 % 0 in /  0.0 mm
07:02 65.3 °F /  18.5 °C 60.6 °F /  15.9 °C 30.1 in /  1017.8 hPa Calm     85 % 0 in /  0.0 mm
07:12 66.6 °F /  19.2 °C 61 °F /  16.1 °C 30.1 in /  1017.8 hPa Calm     82 % 0 in /  0.0 mm
07:17 67.5 °F /  19.7 °C 61.3 °F /  16.3 °C 30.1 in /  1017.8 hPa Calm     81 % 0 in /  0.0 mm
07:22 68.2 °F /  20.1 °C 61.3 °F /  16.3 °C 30.1 in /  1017.8 hPa Calm     79 % 0 in /  0.0 mm
07:32 68.9 °F /  20.5 °C 61.3 °F /  16.3 °C 30.1 in /  1017.8 hPa Calm     77 % 0 in /  0.0 mm
07:42 67.8 °F /  19.9 °C 61 °F /  16.1 °C 30.1 in /  1017.8 hPa Calm     79 % 0 in /  0.0 mm
07:47 67.5 °F /  19.7 °C 61.3 °F /  16.3 °C 30.1 in /  1017.8 hPa Calm     81 % 0 in /  0.0 mm
07:52 67.6 °F /  19.8 °C 61.5 °F /  16.4 °C 30.1 in /  1017.8 hPa Calm     81 % 0 in /  0.0 mm
08:02 68.2 °F /  20.1 °C 61 °F /  16.1 °C 30.1 in /  1017.8 hPa Calm     78 % 0 in /  0.0 mm
08:12 69.1 °F /  20.6 °C 61.2 °F /  16.2 °C 30.1 in /  1018.2 hPa SSW 1 mph /  1.6 km/h 2 mph /  3.2 km/h 76 % 0 in /  0.0 mm
08:17 68.5 °F /  20.3 °C 61.3 °F /  16.3 °C 30.1 in /  1018.2 hPa WSW 3 mph /  4.8 km/h 3 mph /  4.8 km/h 78 % 0 in /  0.0 mm
08:22 68.7 °F /  20.4 °C 61.5 °F /  16.4 °C 30.1 in /  1018.2 hPa Calm   4 mph /  6.4 km/h 78 % 0 in /  0.0 mm
08:32 69.8 °F /  21.0 °C 62.2 °F /  16.8 °C 30.1 in /  1017.8 hPa Calm   4 mph /  6.4 km/h 77 % 0 in /  0.0 mm
08:37 70.5 °F /  21.4 °C 62.6 °F /  17.0 °C 30.1 in /  1017.8 hPa Calm   4 mph /  6.4 km/h 76 % 0 in /  0.0 mm
08:42 71.1 °F /  21.7 °C 62.8 °F /  17.1 °C 30.1 in /  1017.8 hPa SSW 2 mph /  3.2 km/h 3 mph /  4.8 km/h 75 % 0 in /  0.0 mm
08:47 70.9 °F /  21.6 °C 62.2 °F /  16.8 °C 30.1 in /  1017.8 hPa SSW 2 mph /  3.2 km/h 3 mph /  4.8 km/h 74 % 0 in /  0.0 mm
08:52 70.7 °F /  21.5 °C 62.4 °F /  16.9 °C 30.1 in /  1018.2 hPa South 3 mph /  4.8 km/h 3 mph /  4.8 km/h 75 % 0 in /  0.0 mm
08:57 70.9 °F /  21.6 °C 63.3 °F /  17.4 °C 30.1 in /  1018.2 hPa South 2 mph /  3.2 km/h 3 mph /  4.8 km/h 77 % 0 in /  0.0 mm
09:02 71.6 °F /  22.0 °C 63.7 °F /  17.6 °C 30.1 in /  1018.2 hPa Calm   3 mph /  4.8 km/h 76 % 0 in /  0.0 mm
09:12 72.3 °F /  22.4 °C 63.9 °F /  17.7 °C 30.1 in /  1018.2 hPa ESE 1 mph /  1.6 km/h 3 mph /  4.8 km/h 75 % 0 in /  0.0 mm
09:17 72.7 °F /  22.6 °C 64.2 °F /  17.9 °C 30.1 in /  1018.2 hPa Calm   3 mph /  4.8 km/h 75 % 0 in /  0.0 mm
09:27 73 °F /  22.8 °C 64.2 °F /  17.9 °C 30.1 in /  1018.2 hPa SE 1 mph /  1.6 km/h 3 mph /  4.8 km/h 74 % 0 in /  0.0 mm
09:32 73.6 °F /  23.1 °C 64.8 °F /  18.2 °C 30.1 in /  1018.2 hPa Calm   3 mph /  4.8 km/h 74 % 0 in /  0.0 mm
09:42 74.5 °F /  23.6 °C 64.9 °F /  18.3 °C 30.1 in /  1017.8 hPa Calm   3 mph /  4.8 km/h 72 % 0 in /  0.0 mm
09:47 74.7 °F /  23.7 °C 65.1 °F /  18.4 °C 30.1 in /  1017.8 hPa ESE 2 mph /  3.2 km/h 3 mph /  4.8 km/h 72 % 0 in /  0.0 mm
09:52 74.7 °F /  23.7 °C 65.8 °F /  18.8 °C 30.1 in /  1017.8 hPa ESE 1 mph /  1.6 km/h 3 mph /  4.8 km/h 74 % 0 in /  0.0 mm
09:57 75 °F /  23.9 °C 65.8 °F /  18.8 °C 30.1 in /  1017.8 hPa East 2 mph /  3.2 km/h 3 mph /  4.8 km/h 73 % 0 in /  0.0 mm
10:02 74.8 °F /  23.8 °C 65.1 °F /  18.4 °C 30.1 in /  1017.8 hPa East 2 mph /  3.2 km/h 4 mph /  6.4 km/h 72 % 0 in /  0.0 mm
10:12 75.2 °F /  24.0 °C 65.5 °F /  18.6 °C 30.1 in /  1018.2 hPa ENE 1 mph /  1.6 km/h 5 mph /  8.0 km/h 72 % 0 in /  0.0 mm
10:17 75.2 °F /  24.0 °C 66 °F /  18.9 °C 30.1 in /  1018.2 hPa ENE 4 mph /  6.4 km/h 5 mph /  8.0 km/h 73 % 0 in /  0.0 mm
10:22 75 °F /  23.9 °C 65.8 °F /  18.8 °C 30.1 in /  1018.2 hPa ESE 2 mph /  3.2 km/h 5 mph /  8.0 km/h 73 % 0 in /  0.0 mm
10:32 76.1 °F /  24.5 °C 66.4 °F /  19.1 °C 30.1 in /  1017.8 hPa Calm   5 mph /  8.0 km/h 72 % 0 in /  0.0 mm
10:42 77.4 °F /  25.2 °C 66.7 °F /  19.3 °C 30.1 in /  1017.8 hPa East 2 mph /  3.2 km/h 4 mph /  6.4 km/h 70 % 0 in /  0.0 mm
10:52 77.7 °F /  25.4 °C 65.8 °F /  18.8 °C 30.1 in /  1017.8 hPa ENE 2 mph /  3.2 km/h 5 mph /  8.0 km/h 67 % 0 in /  0.0 mm
10:57 78.3 °F /  25.7 °C 66 °F /  18.9 °C 30.1 in /  1017.8 hPa SE 3 mph /  4.8 km/h 5 mph /  8.0 km/h 66 % 0 in /  0.0 mm
11:02 78.3 °F /  25.7 °C 66.4 °F /  19.1 °C 30.1 in /  1017.8 hPa SE 1 mph /  1.6 km/h 6 mph /  9.7 km/h 67 % 0 in /  0.0 mm
11:07 78.3 °F /  25.7 °C 66.4 °F /  19.1 °C 30.1 in /  1017.8 hPa Calm   6 mph /  9.7 km/h 67 % 0 in /  0.0 mm
11:12 79 °F /  26.1 °C 67.1 °F /  19.5 °C 30.1 in /  1017.8 hPa SE 3 mph /  4.8 km/h 6 mph /  9.7 km/h 67 % 0 in /  0.0 mm
11:17 79.3 °F /  26.3 °C 66.6 °F /  19.2 °C 30.1 in /  1017.8 hPa East 3 mph /  4.8 km/h 6 mph /  9.7 km/h 65 % 0 in /  0.0 mm
11:22 79.2 °F /  26.2 °C 67.3 °F /  19.6 °C 30.1 in /  1017.8 hPa Calm   5 mph /  8.0 km/h 67 % 0 in /  0.0 mm
11:32 79.9 °F /  26.6 °C 66.6 °F /  19.2 °C 30.1 in /  1017.8 hPa ENE 3 mph /  4.8 km/h 6 mph /  9.7 km/h 64 % 0 in /  0.0 mm
11:42 81 °F /  27.2 °C 66.7 °F /  19.3 °C 30.1 in /  1017.8 hPa East 1 mph /  1.6 km/h 6 mph /  9.7 km/h 62 % 0 in /  0.0 mm
11:47 80.4 °F /  26.9 °C 66.7 °F /  19.3 °C 30.1 in /  1017.8 hPa ENE 2 mph /  3.2 km/h 6 mph /  9.7 km/h 63 % 0 in /  0.0 mm
11:52 80.6 °F /  27.0 °C 67.8 °F /  19.9 °C 30.1 in /  1017.8 hPa SE 2 mph /  3.2 km/h 6 mph /  9.7 km/h 65 % 0 in /  0.0 mm
11:57 81.3 °F /  27.4 °C 67.5 °F /  19.7 °C 30.1 in /  1017.8 hPa Calm   6 mph /  9.7 km/h 63 % 0 in /  0.0 mm
12:02 81.3 °F /  27.4 °C 67.1 °F /  19.5 °C 30.1 in /  1017.8 hPa SE 3 mph /  4.8 km/h 5 mph /  8.0 km/h 62 % 0 in /  0.0 mm
12:12 81 °F /  27.2 °C 66.7 °F /  19.3 °C 30.1 in /  1017.8 hPa Calm   6 mph /  9.7 km/h 62 % 0 in /  0.0 mm
12:17 81.1 °F /  27.3 °C 66.4 °F /  19.1 °C 30.1 in /  1017.8 hPa ESE 4 mph /  6.4 km/h 6 mph /  9.7 km/h 61 % 0 in /  0.0 mm
12:22 81.3 °F /  27.4 °C 68 °F /  20.0 °C 30.1 in /  1017.8 hPa ESE 2 mph /  3.2 km/h 6 mph /  9.7 km/h 64 % 0 in /  0.0 mm
12:32 81.9 °F /  27.7 °C 66.2 °F /  19.0 °C 30.1 in /  1017.8 hPa ENE 3 mph /  4.8 km/h 6 mph /  9.7 km/h 59 % 0 in /  0.0 mm
12:37 81.9 °F /  27.7 °C 67.1 °F /  19.5 °C 30.1 in /  1017.8 hPa Calm   7 mph /  11.3 km/h 61 % 0 in /  0.0 mm
12:42 82 °F /  27.8 °C 66.7 °F /  19.3 °C 30.1 in /  1017.8 hPa SSE 3 mph /  4.8 km/h 7 mph /  11.3 km/h 60 % 0 in /  0.0 mm
12:52 82.4 °F /  28.0 °C 65.7 °F /  18.7 °C 30.1 in /  1017.8 hPa SE 2 mph /  3.2 km/h 6 mph /  9.7 km/h 57 % 0 in /  0.0 mm
13:02 83.1 °F /  28.4 °C 65.8 °F /  18.8 °C 30.1 in /  1017.5 hPa ENE 5 mph /  8.0 km/h 6 mph /  9.7 km/h 56 % 0 in /  0.0 mm
13:12 83.5 °F /  28.6 °C 65.7 °F /  18.7 °C 30.1 in /  1017.5 hPa SE 1 mph /  1.6 km/h 8 mph /  12.9 km/h 55 % 0 in /  0.0 mm
13:17 83.7 °F /  28.7 °C 65.3 °F /  18.5 °C 30.1 in /  1017.5 hPa ENE 5 mph /  8.0 km/h 8 mph /  12.9 km/h 54 % 0 in /  0.0 mm
13:22 83.7 °F /  28.7 °C 65.8 °F /  18.8 °C 30.1 in /  1017.5 hPa Calm   6 mph /  9.7 km/h 55 % 0 in /  0.0 mm
13:32 83.7 °F /  28.7 °C 64.2 °F /  17.9 °C 30.1 in /  1017.5 hPa East 5 mph /  8.0 km/h 8 mph /  12.9 km/h 52 % 0 in /  0.0 mm
13:37 83.8 °F /  28.8 °C 64.9 °F /  18.3 °C 30.1 in /  1017.5 hPa Calm   8 mph /  12.9 km/h 53 % 0 in /  0.0 mm
13:42 84.4 °F /  29.1 °C 65.8 °F /  18.8 °C 30.1 in /  1017.5 hPa East 2 mph /  3.2 km/h 8 mph /  12.9 km/h 54 % 0 in /  0.0 mm
13:47 84.4 °F /  29.1 °C 65.3 °F /  18.5 °C 30.1 in /  1017.5 hPa ESE 4 mph /  6.4 km/h 8 mph /  12.9 km/h 53 % 0 in /  0.0 mm
13:52 84.4 °F /  29.1 °C 63.7 °F /  17.6 °C 30.1 in /  1017.5 hPa ESE 2 mph /  3.2 km/h 7 mph /  11.3 km/h 50 % 0 in /  0.0 mm
14:02 84.7 °F /  29.3 °C 65.1 °F /  18.4 °C 30.1 in /  1017.5 hPa Calm   7 mph /  11.3 km/h 52 % 0 in /  0.0 mm
14:12 84.7 °F /  29.3 °C 62.2 °F /  16.8 °C 30.1 in /  1017.5 hPa ESE 1 mph /  1.6 km/h 5 mph /  8.0 km/h 47 % 0 in /  0.0 mm
14:17 84.7 °F /  29.3 °C 61.7 °F /  16.5 °C 30 in /  1017.2 hPa ESE 6 mph /  9.7 km/h 6 mph /  9.7 km/h 46 % 0 in /  0.0 mm
14:22 84.4 °F /  29.1 °C 63.1 °F /  17.3 °C 30.1 in /  1017.5 hPa Calm   6 mph /  9.7 km/h 49 % 0 in /  0.0 mm
14:27 84.6 °F /  29.2 °C 62.1 °F /  16.7 °C 30.1 in /  1017.5 hPa SE 2 mph /  3.2 km/h 6 mph /  9.7 km/h 47 % 0 in /  0.0 mm
14:32 85.3 °F /  29.6 °C 61 °F /  16.1 °C 30.1 in /  1017.5 hPa SSE 5 mph /  8.0 km/h 6 mph /  9.7 km/h 44 % 0 in /  0.0 mm
14:42 85.6 °F /  29.8 °C 63.1 °F /  17.3 °C 30.1 in /  1017.5 hPa ESE 2 mph /  3.2 km/h 7 mph /  11.3 km/h 47 % 0 in /  0.0 mm
14:47 86.2 °F /  30.1 °C 63.5 °F /  17.5 °C 30 in /  1017.2 hPa ENE 3 mph /  4.8 km/h 7 mph /  11.3 km/h 47 % 0 in /  0.0 mm
14:52 86.2 °F /  30.1 °C 62.4 °F /  16.9 °C 30 in /  1017.2 hPa ESE 3 mph /  4.8 km/h 7 mph /  11.3 km/h 45 % 0 in /  0.0 mm
14:57 86.2 °F /  30.1 °C 62.4 °F /  16.9 °C 30 in /  1017.2 hPa ESE 4 mph /  6.4 km/h 6 mph /  9.7 km/h 45 % 0 in /  0.0 mm
15:02 86.4 °F /  30.2 °C 63.7 °F /  17.6 °C 30 in /  1017.2 hPa SE 4 mph /  6.4 km/h 7 mph /  11.3 km/h 47 % 0 in /  0.0 mm
15:12 87.1 °F /  30.6 °C 62.6 °F /  17.0 °C 30 in /  1017.2 hPa SSE 2 mph /  3.2 km/h 8 mph /  12.9 km/h 44 % 0 in /  0.0 mm
15:17 86.7 °F /  30.4 °C 60.3 °F /  15.7 °C 30 in /  1017.2 hPa SSW 2 mph /  3.2 km/h 10 mph /  16.1 km/h 41 % 0 in /  0.0 mm
15:22 86.7 °F /  30.4 °C 60.8 °F /  16.0 °C 30 in /  1017.2 hPa NE 3 mph /  4.8 km/h 10 mph /  16.1 km/h 42 % 0 in /  0.0 mm
15:32 86.7 °F /  30.4 °C 60.3 °F /  15.7 °C 30 in /  1017.2 hPa WSW 2 mph /  3.2 km/h 7 mph /  11.3 km/h 41 % 0 in /  0.0 mm
15:37 87.3 °F /  30.7 °C 59.9 °F /  15.5 °C 30 in /  1017.2 hPa South 4 mph /  6.4 km/h 7 mph /  11.3 km/h 40 % 0 in /  0.0 mm
15:42 87.4 °F /  30.8 °C 62.8 °F /  17.1 °C 30 in /  1016.8 hPa ESE 4 mph /  6.4 km/h 5 mph /  8.0 km/h 44 % 0 in /  0.0 mm
15:47 86.9 °F /  30.5 °C 62.4 °F /  16.9 °C 30 in /  1016.8 hPa SW 1 mph /  1.6 km/h 6 mph /  9.7 km/h 44 % 0 in /  0.0 mm
15:52 86.5 °F /  30.3 °C 61.3 °F /  16.3 °C 30 in /  1016.8 hPa SW 2 mph /  3.2 km/h 7 mph /  11.3 km/h 43 % 0 in /  0.0 mm
15:57 87.1 °F /  30.6 °C 64.4 °F /  18.0 °C 30 in /  1016.8 hPa East 2 mph /  3.2 km/h 7 mph /  11.3 km/h 47 % 0 in /  0.0 mm
16:02 87.4 °F /  30.8 °C 64.8 °F /  18.2 °C 30 in /  1016.8 hPa ENE 5 mph /  8.0 km/h 7 mph /  11.3 km/h 47 % 0 in /  0.0 mm
16:12 87.3 °F /  30.7 °C 63.3 °F /  17.4 °C 30 in /  1016.8 hPa ESE 1 mph /  1.6 km/h 6 mph /  9.7 km/h 45 % 0 in /  0.0 mm
16:17 87.4 °F /  30.8 °C 62.8 °F /  17.1 °C 30 in /  1016.8 hPa East 3 mph /  4.8 km/h 6 mph /  9.7 km/h 44 % 0 in /  0.0 mm
16:22 86.5 °F /  30.3 °C 62.1 °F /  16.7 °C 30 in /  1016.8 hPa East 8 mph /  12.9 km/h 8 mph /  12.9 km/h 44 % 0 in /  0.0 mm
16:32 86.7 °F /  30.4 °C 64 °F /  17.8 °C 30 in /  1016.8 hPa East 4 mph /  6.4 km/h 8 mph /  12.9 km/h 47 % 0 in /  0.0 mm
16:42 86.5 °F /  30.3 °C 63.3 °F /  17.4 °C 30 in /  1016.8 hPa East 2 mph /  3.2 km/h 8 mph /  12.9 km/h 46 % 0 in /  0.0 mm
16:47 86.5 °F /  30.3 °C 63.9 °F /  17.7 °C 30 in /  1016.5 hPa SSE 2 mph /  3.2 km/h 7 mph /  11.3 km/h 47 % 0 in /  0.0 mm
16:52 86.5 °F /  30.3 °C 62.6 °F /  17.0 °C 30 in /  1016.5 hPa East 1 mph /  1.6 km/h 7 mph /  11.3 km/h 45 % 0 in /  0.0 mm
16:57 86.4 °F /  30.2 °C 63.1 °F /  17.3 °C 30 in /  1016.5 hPa East 6 mph /  9.7 km/h 6 mph /  9.7 km/h 46 % 0 in /  0.0 mm
17:07 86.5 °F /  30.3 °C 63.3 °F /  17.4 °C 30 in /  1016.1 hPa ESE 2 mph /  3.2 km/h 8 mph /  12.9 km/h 46 % 0 in /  0.0 mm
17:12 86.5 °F /  30.3 °C 62.1 °F /  16.7 °C 30 in /  1016.1 hPa ENE 2 mph /  3.2 km/h 8 mph /  12.9 km/h 44 % 0 in /  0.0 mm
17:17 86.4 °F /  30.2 °C 63.7 °F /  17.6 °C 30 in /  1016.1 hPa Calm   8 mph /  12.9 km/h 47 % 0 in /  0.0 mm
17:22 86.4 °F /  30.2 °C 63.1 °F /  17.3 °C 30 in /  1016.1 hPa Calm   7 mph /  11.3 km/h 46 % 0 in /  0.0 mm
17:32 86.7 °F /  30.4 °C 62.2 °F /  16.8 °C 30 in /  1016.1 hPa SE 3 mph /  4.8 km/h 8 mph /  12.9 km/h 44 % 0 in /  0.0 mm
17:37 86.7 °F /  30.4 °C 63.5 °F /  17.5 °C 30 in /  1016.1 hPa ESE 4 mph /  6.4 km/h 7 mph /  11.3 km/h 46 % 0 in /  0.0 mm
17:42 86.9 °F /  30.5 °C 63.7 °F /  17.6 °C 30 in /  1016.1 hPa Calm   7 mph /  11.3 km/h 46 % 0 in /  0.0 mm
17:52 87.1 °F /  30.6 °C 63.1 °F /  17.3 °C 30 in /  1016.1 hPa ESE 4 mph /  6.4 km/h 5 mph /  8.0 km/h 45 % 0 in /  0.0 mm
17:57 87.1 °F /  30.6 °C 64.4 °F /  18.0 °C 30 in /  1016.1 hPa ESE 1 mph /  1.6 km/h 5 mph /  8.0 km/h 47 % 0 in /  0.0 mm
18:02 86.7 °F /  30.4 °C 62.8 °F /  17.1 °C 30 in /  1016.1 hPa ENE 2 mph /  3.2 km/h 6 mph /  9.7 km/h 45 % 0 in /  0.0 mm
18:07 86.7 °F /  30.4 °C 64.8 °F /  18.2 °C 30 in /  1016.1 hPa East 5 mph /  8.0 km/h 6 mph /  9.7 km/h 48 % 0 in /  0.0 mm
18:12 86.7 °F /  30.4 °C 64 °F /  17.8 °C 30 in /  1016.1 hPa East 3 mph /  4.8 km/h 6 mph /  9.7 km/h 47 % 0 in /  0.0 mm
18:17 86.7 °F /  30.4 °C 63.5 °F /  17.5 °C 30 in /  1015.8 hPa SE 3 mph /  4.8 km/h 6 mph /  9.7 km/h 46 % 0 in /  0.0 mm
18:22 86.5 °F /  30.3 °C 64.6 °F /  18.1 °C 30 in /  1015.8 hPa Calm   6 mph /  9.7 km/h 48 % 0 in /  0.0 mm
18:27 86.5 °F /  30.3 °C 63.3 °F /  17.4 °C 30 in /  1015.8 hPa East 1 mph /  1.6 km/h 7 mph /  11.3 km/h 46 % 0 in /  0.0 mm
18:32 86.7 °F /  30.4 °C 62.8 °F /  17.1 °C 30 in /  1015.8 hPa East 5 mph /  8.0 km/h 7 mph /  11.3 km/h 45 % 0 in /  0.0 mm
18:42 87.1 °F /  30.6 °C 63.9 °F /  17.7 °C 30 in /  1015.8 hPa East 2 mph /  3.2 km/h 7 mph /  11.3 km/h 46 % 0 in /  0.0 mm
18:52 87.1 °F /  30.6 °C 63.1 °F /  17.3 °C 30 in /  1015.8 hPa WSW 1 mph /  1.6 km/h 6 mph /  9.7 km/h 45 % 0 in /  0.0 mm
19:02 87.1 °F /  30.6 °C 63.9 °F /  17.7 °C 30 in /  1015.8 hPa SE 3 mph /  4.8 km/h 6 mph /  9.7 km/h 46 % 0 in /  0.0 mm
19:12 86.5 °F /  30.3 °C 64.6 °F /  18.1 °C 30 in /  1015.8 hPa ESE 2 mph /  3.2 km/h 6 mph /  9.7 km/h 48 % 0 in /  0.0 mm
19:17 86.2 °F /  30.1 °C 64.2 °F /  17.9 °C 30 in /  1015.8 hPa SSE 2 mph /  3.2 km/h 5 mph /  8.0 km/h 48 % 0 in /  0.0 mm
19:22 86.2 °F /  30.1 °C 64.8 °F /  18.2 °C 30 in /  1015.8 hPa ESE 1 mph /  1.6 km/h 5 mph /  8.0 km/h 49 % 0 in /  0.0 mm
19:27 86.2 °F /  30.1 °C 64.8 °F /  18.2 °C 30 in /  1015.8 hPa SE 1 mph /  1.6 km/h 4 mph /  6.4 km/h 49 % 0 in /  0.0 mm
19:32 86.4 °F /  30.2 °C 64.4 °F /  18.0 °C 30 in /  1015.8 hPa Calm   4 mph /  6.4 km/h 48 % 0 in /  0.0 mm
19:37 86.5 °F /  30.3 °C 65.7 °F /  18.7 °C 30 in /  1015.8 hPa ESE 1 mph /  1.6 km/h 3 mph /  4.8 km/h 50 % 0 in /  0.0 mm
19:42 86.2 °F /  30.1 °C 65.8 °F /  18.8 °C 30 in /  1015.5 hPa South 1 mph /  1.6 km/h 3 mph /  4.8 km/h 51 % 0 in /  0.0 mm
19:52 85.6 °F /  29.8 °C 66.6 °F /  19.2 °C 30 in /  1015.8 hPa Calm   3 mph /  4.8 km/h 53 % 0 in /  0.0 mm
19:57 85.5 °F /  29.7 °C 68 °F /  20.0 °C 30 in /  1015.5 hPa Calm   2 mph /  3.2 km/h 56 % 0 in /  0.0 mm
20:02 84.9 °F /  29.4 °C 67.5 °F /  19.7 °C 30 in /  1015.5 hPa Calm   2 mph /  3.2 km/h 56 % 0 in /  0.0 mm
20:12 84.4 °F /  29.1 °C 66.9 °F /  19.4 °C 30 in /  1015.5 hPa Calm     56 % 0 in /  0.0 mm
20:17 84 °F /  28.9 °C 66.6 °F /  19.2 °C 30 in /  1015.5 hPa Calm     56 % 0 in /  0.0 mm
20:22 83.8 °F /  28.8 °C 65.5 °F /  18.6 °C 30 in /  1015.5 hPa Calm     54 % 0 in /  0.0 mm
20:32 84.4 °F /  29.1 °C 64.8 °F /  18.2 °C 30 in /  1015.5 hPa Calm     52 % 0 in /  0.0 mm
20:42 82.9 °F /  28.3 °C 65.7 °F /  18.7 °C 30 in /  1015.5 hPa Calm     56 % 0 in /  0.0 mm
20:47 82 °F /  27.8 °C 65.8 °F /  18.8 °C 30 in /  1015.5 hPa Calm     58 % 0 in /  0.0 mm
20:52 81.7 °F /  27.6 °C 65.5 °F /  18.6 °C 30 in /  1015.5 hPa Calm     58 % 0 in /  0.0 mm
20:57 81.3 °F /  27.4 °C 65.1 °F /  18.4 °C 30 in /  1015.1 hPa Calm     58 % 0 in /  0.0 mm
21:02 81 °F /  27.2 °C 65.8 °F /  18.8 °C 30 in /  1015.5 hPa Calm     60 % 0 in /  0.0 mm
21:12 79.2 °F /  26.2 °C 66.4 °F /  19.1 °C 30 in /  1015.5 hPa Calm     65 % 0 in /  0.0 mm
21:17 77.7 °F /  25.4 °C 64.6 °F /  18.1 °C 30 in /  1015.5 hPa Calm     64 % 0 in /  0.0 mm
21:22 77.2 °F /  25.1 °C 64 °F /  17.8 °C 30 in /  1015.5 hPa Calm     64 % 0 in /  0.0 mm
21:32 75.9 °F /  24.4 °C 64.2 °F /  17.9 °C 30 in /  1015.5 hPa Calm     67 % 0 in /  0.0 mm
21:37 75 °F /  23.9 °C 63.3 °F /  17.4 °C 30 in /  1015.5 hPa Calm     67 % 0 in /  0.0 mm
21:42 74.7 °F /  23.7 °C 63 °F /  17.2 °C 30 in /  1015.5 hPa Calm     67 % 0 in /  0.0 mm
21:47 74.8 °F /  23.8 °C 63.1 °F /  17.3 °C 30 in /  1015.5 hPa Calm     67 % 0 in /  0.0 mm
21:52 74.5 °F /  23.6 °C 63.1 °F /  17.3 °C 30 in /  1015.5 hPa Calm     68 % 0 in /  0.0 mm
21:57 73.9 °F /  23.3 °C 63.9 °F /  17.7 °C 30 in /  1015.8 hPa WNW 1 mph /  1.6 km/h   71 % 0 in /  0.0 mm
22:02 73.2 °F /  22.9 °C 64 °F /  17.8 °C 30 in /  1015.8 hPa WNW 1 mph /  1.6 km/h 1 mph /  1.6 km/h 73 % 0 in /  0.0 mm
22:07 73 °F /  22.8 °C 64.2 °F /  17.9 °C 30 in /  1015.8 hPa WNW 1 mph /  1.6 km/h 1 mph /  1.6 km/h 74 % 0 in /  0.0 mm
22:12 72.3 °F /  22.4 °C 64.4 °F /  18.0 °C 30 in /  1015.8 hPa WNW 2 mph /  3.2 km/h 2 mph /  3.2 km/h 76 % 0 in /  0.0 mm
22:17 72 °F /  22.2 °C 64.8 °F /  18.2 °C 30 in /  1015.8 hPa WNW 1 mph /  1.6 km/h 2 mph /  3.2 km/h 78 % 0 in /  0.0 mm
22:22 71.6 °F /  22.0 °C 64.8 °F /  18.2 °C 30 in /  1015.8 hPa WNW 2 mph /  3.2 km/h 2 mph /  3.2 km/h 79 % 0 in /  0.0 mm
22:32 71.4 °F /  21.9 °C 64.9 °F /  18.3 °C 30 in /  1015.8 hPa WNW 1 mph /  1.6 km/h 2 mph /  3.2 km/h 80 % 0 in /  0.0 mm
22:37 71.4 °F /  21.9 °C 64.2 °F /  17.9 °C 30 in /  1015.8 hPa Calm   2 mph /  3.2 km/h 78 % 0 in /  0.0 mm
22:42 71.2 °F /  21.8 °C 64 °F /  17.8 °C 30 in /  1015.8 hPa Calm   2 mph /  3.2 km/h 78 % 0 in /  0.0 mm
22:47 70.9 °F /  21.6 °C 63.7 °F /  17.6 °C 30 in /  1015.8 hPa WNW 2 mph /  3.2 km/h 2 mph /  3.2 km/h 78 % 0 in /  0.0 mm
22:52 71.1 °F /  21.7 °C 64.2 °F /  17.9 °C 30 in /  1015.8 hPa Calm   2 mph /  3.2 km/h 79 % 0 in /  0.0 mm
22:57 71.1 °F /  21.7 °C 63.9 °F /  17.7 °C 30 in /  1015.8 hPa WNW 1 mph /  1.6 km/h 2 mph /  3.2 km/h 78 % 0 in /  0.0 mm
23:02 71.4 °F /  21.9 °C 63.5 °F /  17.5 °C 30 in /  1015.8 hPa NNW 1 mph /  1.6 km/h 2 mph /  3.2 km/h 76 % 0 in /  0.0 mm
23:12 71.1 °F /  21.7 °C 63.1 °F /  17.3 °C 30 in /  1015.8 hPa NW 1 mph /  1.6 km/h 1 mph /  1.6 km/h 76 % 0 in /  0.0 mm
23:17 70.9 °F /  21.6 °C 63.7 °F /  17.6 °C 30 in /  1015.8 hPa WNW 1 mph /  1.6 km/h 1 mph /  1.6 km/h 78 % 0 in /  0.0 mm
23:22 70.3 °F /  21.3 °C 63.5 °F /  17.5 °C 30 in /  1015.5 hPa Calm   2 mph /  3.2 km/h 79 % 0 in /  0.0 mm
23:27 70.2 °F /  21.2 °C 63.3 °F /  17.4 °C 30 in /  1015.5 hPa Calm   2 mph /  3.2 km/h 79 % 0 in /  0.0 mm
23:32 70.2 °F /  21.2 °C 63.3 °F /  17.4 °C 30 in /  1015.5 hPa WNW 1 mph /  1.6 km/h 2 mph /  3.2 km/h 79 % 0 in /  0.0 mm
23:42 70.7 °F /  21.5 °C 63.5 °F /  17.5 °C 30 in /  1015.5 hPa NNW 1 mph /  1.6 km/h 1 mph /  1.6 km/h 78 % 0 in /  0.0 mm
23:47 71.4 °F /  21.9 °C 63.5 °F /  17.5 °C 30 in /  1015.5 hPa NNW 1 mph /  1.6 km/h 2 mph /  3.2 km/h 76 % 0 in /  0.0 mm
23:52 71.4 °F /  21.9 °C 63.5 °F /  17.5 °C 30 in /  1015.5 hPa Calm   3 mph /  4.8 km/h 76 % 0 in /  0.0 mm
23:57 70.7 °F /  21.5 °C 63.1 °F /  17.3 °C 30 in /  1015.5 hPa Calm   3 mph /  4.8 km/h 77 % 0 in /  0.0 mm
Meteo18
Compliments of Weather Underground - 4 mb

Script developed by  Jim McMurry - jmcmurry@mwt.net Adapted for the template by  Wim van der Kuil - Leuven-Template.eu

You find our weather info also at:

European Weather Network

Weather Underground

Equipment we use:

Weather-station
Davis Vue

Weather-program
Meteohub

Weather-server
Raspberry PI 2 B+

Provider
1 and 1

Davis Vue

Meteohub

Raspberry PI 2 B+

1 and 1